sensor_id;sensor_type;location;lat;lon;timestamp;temperature;humidity
52387;DHT22;38317;53.084;6.960;2023-08-08T00:01:06;13.10;99.90
52387;DHT22;38317;53.084;6.960;2023-08-08T00:03:32;13.10;99.90
52387;DHT22;38317;53.084;6.960;2023-08-08T00:05:58;13.10;99.90
52387;DHT22;38317;53.084;6.960;2023-08-08T00:08:24;13.10;99.90
52387;DHT22;38317;53.084;6.960;2023-08-08T00:10:49;13.10;99.90
52387;DHT22;38317;53.084;6.960;2023-08-08T00:13:15;13.10;99.90
52387;DHT22;38317;53.084;6.960;2023-08-08T00:15:41;13.10;99.90
52387;DHT22;38317;53.084;6.960;2023-08-08T00:18:07;13.10;99.90
52387;DHT22;38317;53.084;6.960;2023-08-08T00:20:32;13.10;99.90
52387;DHT22;38317;53.084;6.960;2023-08-08T00:22:58;13.00;99.90
52387;DHT22;38317;53.084;6.960;2023-08-08T00:25:24;13.00;99.90
52387;DHT22;38317;53.084;6.960;2023-08-08T00:27:50;13.10;99.90
52387;DHT22;38317;53.084;6.960;2023-08-08T00:30:16;13.10;99.90
52387;DHT22;38317;53.084;6.960;2023-08-08T00:32:41;13.00;99.90
52387;DHT22;38317;53.084;6.960;2023-08-08T00:35:08;13.10;99.90
52387;DHT22;38317;53.084;6.960;2023-08-08T00:37:33;13.00;99.90
52387;DHT22;38317;53.084;6.960;2023-08-08T00:39:59;13.00;99.90
52387;DHT22;38317;53.084;6.960;2023-08-08T00:42:25;13.00;99.90
52387;DHT22;38317;53.084;6.960;2023-08-08T00:44:51;13.00;99.90
52387;DHT22;38317;53.084;6.960;2023-08-08T00:47:19;13.00;99.90
52387;DHT22;38317;53.084;6.960;2023-08-08T00:49:45;13.00;99.90
52387;DHT22;38317;53.084;6.960;2023-08-08T00:52:14;13.00;99.90
52387;DHT22;38317;53.084;6.960;2023-08-08T00:54:40;13.00;99.90
52387;DHT22;38317;53.084;6.960;2023-08-08T00:57:06;13.00;99.90
52387;DHT22;38317;53.084;6.960;2023-08-08T00:59:31;13.00;99.90
52387;DHT22;38317;53.084;6.960;2023-08-08T01:01:58;13.00;99.90
52387;DHT22;38317;53.084;6.960;2023-08-08T01:04:26;13.00;99.90
52387;DHT22;38317;53.084;6.960;2023-08-08T01:09:54;13.00;99.90
52387;DHT22;38317;53.084;6.960;2023-08-08T01:12:23;13.00;99.90
52387;DHT22;38317;53.084;6.960;2023-08-08T01:14:50;13.00;99.90
52387;DHT22;38317;53.084;6.960;2023-08-08T01:17:17;13.00;99.90
52387;DHT22;38317;53.084;6.960;2023-08-08T01:19:44;13.00;99.90
52387;DHT22;38317;53.084;6.960;2023-08-08T01:22:22;13.00;99.90
52387;DHT22;38317;53.084;6.960;2023-08-08T01:24:49;13.00;99.90
52387;DHT22;38317;53.084;6.960;2023-08-08T01:27:15;13.00;99.90
52387;DHT22;38317;53.084;6.960;2023-08-08T01:29:41;13.00;99.90
52387;DHT22;38317;53.084;6.960;2023-08-08T01:32:07;13.00;99.90
52387;DHT22;38317;53.084;6.960;2023-08-08T01:34:35;13.00;99.90
52387;DHT22;38317;53.084;6.960;2023-08-08T01:37:20;13.00;99.90
52387;DHT22;38317;53.084;6.960;2023-08-08T01:39:48;13.00;99.90
52387;DHT22;38317;53.084;6.960;2023-08-08T01:42:18;13.00;99.90
52387;DHT22;38317;53.084;6.960;2023-08-08T01:44:44;13.00;99.90
52387;DHT22;38317;53.084;6.960;2023-08-08T01:47:11;13.00;99.90
52387;DHT22;38317;53.084;6.960;2023-08-08T01:49:37;13.00;99.90
52387;DHT22;38317;53.084;6.960;2023-08-08T01:52:03;13.00;99.90
52387;DHT22;38317;53.084;6.960;2023-08-08T01:54:29;13.00;99.90
52387;DHT22;38317;53.084;6.960;2023-08-08T01:56:54;13.00;99.90
52387;DHT22;38317;53.084;6.960;2023-08-08T01:59:20;13.00;99.90
52387;DHT22;38317;53.084;6.960;2023-08-08T02:01:46;13.00;99.90
52387;DHT22;38317;53.084;6.960;2023-08-08T02:04:11;13.10;99.90
52387;DHT22;38317;53.084;6.960;2023-08-08T02:06:37;13.10;99.90
52387;DHT22;38317;53.084;6.960;2023-08-08T02:09:03;13.10;99.90
52387;DHT22;38317;53.084;6.960;2023-08-08T02:11:28;13.10;99.90
52387;DHT22;38317;53.084;6.960;2023-08-08T02:13:54;13.10;99.90
52387;DHT22;38317;53.084;6.960;2023-08-08T02:16:20;13.20;99.90
52387;DHT22;38317;53.084;6.960;2023-08-08T02:18:45;13.10;99.90
52387;DHT22;38317;53.084;6.960;2023-08-08T02:21:11;13.10;99.90
52387;DHT22;38317;53.084;6.960;2023-08-08T02:23:37;13.10;99.90
52387;DHT22;38317;53.084;6.960;2023-08-08T02:26:03;13.20;99.90
52387;DHT22;38317;53.084;6.960;2023-08-08T02:28:29;13.10;99.90
52387;DHT22;38317;53.084;6.960;2023-08-08T02:30:55;13.20;99.90
52387;DHT22;38317;53.084;6.960;2023-08-08T02:33:21;13.20;99.90
52387;DHT22;38317;53.084;6.960;2023-08-08T02:35:46;13.20;99.90
52387;DHT22;38317;53.084;6.960;2023-08-08T02:38:12;13.20;99.90
52387;DHT22;38317;53.084;6.960;2023-08-08T02:40:38;13.20;99.90
52387;DHT22;38317;53.084;6.960;2023-08-08T02:43:04;13.20;99.90
52387;DHT22;38317;53.084;6.960;2023-08-08T02:45:30;13.20;99.90
52387;DHT22;38317;53.084;6.960;2023-08-08T02:47:56;13.20;99.90
52387;DHT22;38317;53.084;6.960;2023-08-08T02:50:21;13.30;99.90
52387;DHT22;38317;53.084;6.960;2023-08-08T02:52:47;13.30;99.90
52387;DHT22;38317;53.084;6.960;2023-08-08T02:55:13;13.20;99.90
52387;DHT22;38317;53.084;6.960;2023-08-08T02:57:39;13.30;99.90
52387;DHT22;38317;53.084;6.960;2023-08-08T03:00:05;13.20;99.90
52387;DHT22;38317;53.084;6.960;2023-08-08T03:02:34;13.30;99.90
52387;DHT22;38317;53.084;6.960;2023-08-08T03:04:59;13.30;99.90
52387;DHT22;38317;53.084;6.960;2023-08-08T03:07:25;13.30;99.90
52387;DHT22;38317;53.084;6.960;2023-08-08T03:09:51;13.30;99.90
52387;DHT22;38317;53.084;6.960;2023-08-08T03:12:16;13.30;99.90
52387;DHT22;38317;53.084;6.960;2023-08-08T03:14:42;13.30;99.90
52387;DHT22;38317;53.084;6.960;2023-08-08T03:17:08;13.30;99.90
52387;DHT22;38317;53.084;6.960;2023-08-08T03:19:33;13.30;99.90
52387;DHT22;38317;53.084;6.960;2023-08-08T03:21:59;13.30;99.90
52387;DHT22;38317;53.084;6.960;2023-08-08T03:24:25;13.30;99.90
52387;DHT22;38317;53.084;6.960;2023-08-08T03:26:51;13.30;99.90
52387;DHT22;38317;53.084;6.960;2023-08-08T03:29:16;13.30;99.90
52387;DHT22;38317;53.084;6.960;2023-08-08T03:31:42;13.20;99.90
52387;DHT22;38317;53.084;6.960;2023-08-08T03:34:08;13.20;99.90
52387;DHT22;38317;53.084;6.960;2023-08-08T03:36:33;13.30;99.90
52387;DHT22;38317;53.084;6.960;2023-08-08T03:38:59;13.20;99.90
52387;DHT22;38317;53.084;6.960;2023-08-08T03:41:25;13.30;99.90
52387;DHT22;38317;53.084;6.960;2023-08-08T03:43:51;13.20;99.90
52387;DHT22;38317;53.084;6.960;2023-08-08T03:46:16;13.20;99.90
52387;DHT22;38317;53.084;6.960;2023-08-08T03:48:42;13.20;99.90
52387;DHT22;38317;53.084;6.960;2023-08-08T03:51:08;13.20;99.90
52387;DHT22;38317;53.084;6.960;2023-08-08T03:53:33;13.20;99.90
52387;DHT22;38317;53.084;6.960;2023-08-08T03:55:59;13.20;99.90
52387;DHT22;38317;53.084;6.960;2023-08-08T03:58:25;13.20;99.90
52387;DHT22;38317;53.084;6.960;2023-08-08T04:00:51;13.20;99.90
52387;DHT22;38317;53.084;6.960;2023-08-08T04:03:17;13.10;99.90
52387;DHT22;38317;53.084;6.960;2023-08-08T04:05:47;13.20;99.90
52387;DHT22;38317;53.084;6.960;2023-08-08T04:08:14;13.10;99.90
52387;DHT22;38317;53.084;6.960;2023-08-08T04:10:40;13.10;99.90
52387;DHT22;38317;53.084;6.960;2023-08-08T04:13:05;13.10;99.90
52387;DHT22;38317;53.084;6.960;2023-08-08T04:15:31;13.10;99.90
52387;DHT22;38317;53.084;6.960;2023-08-08T04:17:57;13.10;99.90
52387;DHT22;38317;53.084;6.960;2023-08-08T04:20:23;13.10;99.90
52387;DHT22;38317;53.084;6.960;2023-08-08T04:22:49;13.10;99.90
52387;DHT22;38317;53.084;6.960;2023-08-08T04:25:15;13.10;99.90
52387;DHT22;38317;53.084;6.960;2023-08-08T04:27:41;13.10;99.90
52387;DHT22;38317;53.084;6.960;2023-08-08T04:30:07;13.10;99.90
52387;DHT22;38317;53.084;6.960;2023-08-08T04:32:33;13.10;99.90
52387;DHT22;38317;53.084;6.960;2023-08-08T04:34:59;13.20;99.90
52387;DHT22;38317;53.084;6.960;2023-08-08T04:37:25;13.10;99.90
52387;DHT22;38317;53.084;6.960;2023-08-08T04:39:50;13.10;99.90
52387;DHT22;38317;53.084;6.960;2023-08-08T04:42:16;13.20;99.90
52387;DHT22;38317;53.084;6.960;2023-08-08T04:44:42;13.20;99.90
52387;DHT22;38317;53.084;6.960;2023-08-08T04:47:07;13.20;99.90
52387;DHT22;38317;53.084;6.960;2023-08-08T04:49:33;13.20;99.90
52387;DHT22;38317;53.084;6.960;2023-08-08T04:51:59;13.20;99.90
52387;DHT22;38317;53.084;6.960;2023-08-08T04:54:25;13.20;99.90
52387;DHT22;38317;53.084;6.960;2023-08-08T04:56:50;13.20;99.90
52387;DHT22;38317;53.084;6.960;2023-08-08T04:59:16;13.30;99.90
52387;DHT22;38317;53.084;6.960;2023-08-08T05:01:42;13.40;99.90
52387;DHT22;38317;53.084;6.960;2023-08-08T05:04:08;13.40;99.90
52387;DHT22;38317;53.084;6.960;2023-08-08T05:06:34;13.40;99.90
52387;DHT22;38317;53.084;6.960;2023-08-08T05:09:00;13.40;99.90
52387;DHT22;38317;53.084;6.960;2023-08-08T05:11:26;13.40;99.90
52387;DHT22;38317;53.084;6.960;2023-08-08T05:13:51;13.50;99.90
52387;DHT22;38317;53.084;6.960;2023-08-08T05:16:18;13.50;99.90
52387;DHT22;38317;53.084;6.960;2023-08-08T05:18:43;13.50;99.90
52387;DHT22;38317;53.084;6.960;2023-08-08T05:21:12;13.50;99.90
52387;DHT22;38317;53.084;6.960;2023-08-08T05:23:38;13.40;99.90
52387;DHT22;38317;53.084;6.960;2023-08-08T05:26:03;13.40;99.90
52387;DHT22;38317;53.084;6.960;2023-08-08T05:28:29;13.40;99.90
52387;DHT22;38317;53.084;6.960;2023-08-08T05:30:55;13.40;99.90
52387;DHT22;38317;53.084;6.960;2023-08-08T05:33:22;13.40;99.90
52387;DHT22;38317;53.084;6.960;2023-08-08T05:35:48;13.40;99.90
52387;DHT22;38317;53.084;6.960;2023-08-08T05:38:13;13.40;99.90
52387;DHT22;38317;53.084;6.960;2023-08-08T05:40:39;13.40;99.90
52387;DHT22;38317;53.084;6.960;2023-08-08T05:43:05;13.40;99.90
52387;DHT22;38317;53.084;6.960;2023-08-08T05:45:31;13.40;99.90
52387;DHT22;38317;53.084;6.960;2023-08-08T05:47:57;13.40;99.90
52387;DHT22;38317;53.084;6.960;2023-08-08T05:50:25;13.40;99.90
52387;DHT22;38317;53.084;6.960;2023-08-08T05:52:50;13.40;99.90
52387;DHT22;38317;53.084;6.960;2023-08-08T05:55:16;13.50;99.90
52387;DHT22;38317;53.084;6.960;2023-08-08T05:57:42;13.50;99.90
52387;DHT22;38317;53.084;6.960;2023-08-08T06:00:08;13.60;99.90
52387;DHT22;38317;53.084;6.960;2023-08-08T06:02:37;13.60;99.90
52387;DHT22;38317;53.084;6.960;2023-08-08T06:05:04;13.70;99.90
52387;DHT22;38317;53.084;6.960;2023-08-08T06:07:30;13.70;99.90
52387;DHT22;38317;53.084;6.960;2023-08-08T06:09:55;13.70;99.90
52387;DHT22;38317;53.084;6.960;2023-08-08T06:12:21;13.80;99.90
52387;DHT22;38317;53.084;6.960;2023-08-08T06:14:47;13.90;99.90
52387;DHT22;38317;53.084;6.960;2023-08-08T06:17:13;13.90;99.90
52387;DHT22;38317;53.084;6.960;2023-08-08T06:19:40;14.00;99.90
52387;DHT22;38317;53.084;6.960;2023-08-08T06:22:05;14.00;99.90
52387;DHT22;38317;53.084;6.960;2023-08-08T06:24:31;14.00;99.90
52387;DHT22;38317;53.084;6.960;2023-08-08T06:26:57;14.00;99.90
52387;DHT22;38317;53.084;6.960;2023-08-08T06:29:23;14.00;99.90
52387;DHT22;38317;53.084;6.960;2023-08-08T06:31:48;14.10;99.90
52387;DHT22;38317;53.084;6.960;2023-08-08T06:34:14;14.20;99.90
52387;DHT22;38317;53.084;6.960;2023-08-08T06:36:41;14.30;99.90
52387;DHT22;38317;53.084;6.960;2023-08-08T06:39:06;14.30;99.90
52387;DHT22;38317;53.084;6.960;2023-08-08T06:41:32;14.30;99.90
52387;DHT22;38317;53.084;6.960;2023-08-08T06:43:58;14.40;99.90
52387;DHT22;38317;53.084;6.960;2023-08-08T06:46:24;14.40;99.90
52387;DHT22;38317;53.084;6.960;2023-08-08T06:48:50;14.50;99.90
52387;DHT22;38317;53.084;6.960;2023-08-08T06:51:18;14.60;99.90
52387;DHT22;38317;53.084;6.960;2023-08-08T06:53:44;14.70;99.90
52387;DHT22;38317;53.084;6.960;2023-08-08T06:56:09;14.70;99.90
52387;DHT22;38317;53.084;6.960;2023-08-08T06:58:35;14.80;99.90
52387;DHT22;38317;53.084;6.960;2023-08-08T07:01:02;14.90;99.90
52387;DHT22;38317;53.084;6.960;2023-08-08T07:03:27;15.00;99.90
52387;DHT22;38317;53.084;6.960;2023-08-08T07:05:53;15.00;99.90
52387;DHT22;38317;53.084;6.960;2023-08-08T07:08:19;15.10;99.90
52387;DHT22;38317;53.084;6.960;2023-08-08T07:10:45;15.10;99.90
52387;DHT22;38317;53.084;6.960;2023-08-08T07:13:11;15.10;99.90
52387;DHT22;38317;53.084;6.960;2023-08-08T07:15:37;15.30;99.90
52387;DHT22;38317;53.084;6.960;2023-08-08T07:18:03;15.60;99.90
52387;DHT22;38317;53.084;6.960;2023-08-08T07:20:30;16.00;99.90
52387;DHT22;38317;53.084;6.960;2023-08-08T07:22:55;16.30;99.90
52387;DHT22;38317;53.084;6.960;2023-08-08T07:25:21;16.50;99.90
52387;DHT22;38317;53.084;6.960;2023-08-08T07:27:47;16.60;99.90
52387;DHT22;38317;53.084;6.960;2023-08-08T07:30:13;16.60;99.90
52387;DHT22;38317;53.084;6.960;2023-08-08T07:32:39;16.50;99.90
52387;DHT22;38317;53.084;6.960;2023-08-08T07:35:05;16.50;99.90
52387;DHT22;38317;53.084;6.960;2023-08-08T07:37:32;16.60;99.90
52387;DHT22;38317;53.084;6.960;2023-08-08T07:39:58;16.70;99.90
52387;DHT22;38317;53.084;6.960;2023-08-08T07:42:24;16.70;99.90
52387;DHT22;38317;53.084;6.960;2023-08-08T07:44:50;16.80;99.90
52387;DHT22;38317;53.084;6.960;2023-08-08T07:47:15;16.90;99.90
52387;DHT22;38317;53.084;6.960;2023-08-08T07:49:41;17.00;99.90
52387;DHT22;38317;53.084;6.960;2023-08-08T07:52:07;17.10;99.90
52387;DHT22;38317;53.084;6.960;2023-08-08T07:54:34;17.20;99.90
52387;DHT22;38317;53.084;6.960;2023-08-08T07:57:00;17.20;99.90
52387;DHT22;38317;53.084;6.960;2023-08-08T07:59:27;17.30;99.90
52387;DHT22;38317;53.084;6.960;2023-08-08T08:01:53;17.40;99.90
52387;DHT22;38317;53.084;6.960;2023-08-08T08:04:19;17.30;99.90
52387;DHT22;38317;53.084;6.960;2023-08-08T08:06:44;17.20;99.90
52387;DHT22;38317;53.084;6.960;2023-08-08T08:09:10;17.10;99.90
52387;DHT22;38317;53.084;6.960;2023-08-08T08:11:36;17.10;99.90
52387;DHT22;38317;53.084;6.960;2023-08-08T08:14:02;17.00;99.90
52387;DHT22;38317;53.084;6.960;2023-08-08T08:16:27;17.10;99.90
52387;DHT22;38317;53.084;6.960;2023-08-08T08:18:53;17.10;99.90
52387;DHT22;38317;53.084;6.960;2023-08-08T08:21:19;17.10;99.90
52387;DHT22;38317;53.084;6.960;2023-08-08T08:23:46;17.10;99.90
52387;DHT22;38317;53.084;6.960;2023-08-08T08:26:12;17.20;99.90
52387;DHT22;38317;53.084;6.960;2023-08-08T08:28:38;17.10;99.90
52387;DHT22;38317;53.084;6.960;2023-08-08T08:31:06;17.20;99.90
52387;DHT22;38317;53.084;6.960;2023-08-08T08:33:32;17.20;99.90
52387;DHT22;38317;53.084;6.960;2023-08-08T08:35:57;17.30;99.90
52387;DHT22;38317;53.084;6.960;2023-08-08T08:38:23;17.30;99.90
52387;DHT22;38317;53.084;6.960;2023-08-08T08:40:49;17.30;99.90
52387;DHT22;38317;53.084;6.960;2023-08-08T08:43:16;17.40;99.90
52387;DHT22;38317;53.084;6.960;2023-08-08T08:45:43;17.40;99.90
52387;DHT22;38317;53.084;6.960;2023-08-08T08:48:12;17.50;99.90
52387;DHT22;38317;53.084;6.960;2023-08-08T08:50:41;17.50;99.90
52387;DHT22;38317;53.084;6.960;2023-08-08T08:53:10;17.60;99.90
52387;DHT22;38317;53.084;6.960;2023-08-08T08:55:36;17.60;99.90
52387;DHT22;38317;53.084;6.960;2023-08-08T08:58:03;17.70;99.90
52387;DHT22;38317;53.084;6.960;2023-08-08T09:00:30;17.70;99.90
52387;DHT22;38317;53.084;6.960;2023-08-08T09:02:56;18.00;99.90
52387;DHT22;38317;53.084;6.960;2023-08-08T09:05:24;18.30;99.90
52387;DHT22;38317;53.084;6.960;2023-08-08T09:07:50;18.40;99.90
52387;DHT22;38317;53.084;6.960;2023-08-08T09:10:17;18.30;99.90
52387;DHT22;38317;53.084;6.960;2023-08-08T09:12:44;18.10;99.90
52387;DHT22;38317;53.084;6.960;2023-08-08T09:15:11;18.00;99.90
52387;DHT22;38317;53.084;6.960;2023-08-08T09:17:41;18.10;99.90
52387;DHT22;38317;53.084;6.960;2023-08-08T09:20:08;18.20;99.90
52387;DHT22;38317;53.084;6.960;2023-08-08T09:22:37;18.30;99.90
52387;DHT22;38317;53.084;6.960;2023-08-08T09:25:03;18.30;99.90
52387;DHT22;38317;53.084;6.960;2023-08-08T09:27:29;18.40;99.90
52387;DHT22;38317;53.084;6.960;2023-08-08T09:29:55;18.30;99.90
52387;DHT22;38317;53.084;6.960;2023-08-08T09:32:29;18.10;99.90
52387;DHT22;38317;53.084;6.960;2023-08-08T09:34:56;17.90;99.90
52387;DHT22;38317;53.084;6.960;2023-08-08T09:37:23;18.00;99.90
52387;DHT22;38317;53.084;6.960;2023-08-08T09:39:59;18.30;99.90
52387;DHT22;38317;53.084;6.960;2023-08-08T09:42:27;18.30;99.90
52387;DHT22;38317;53.084;6.960;2023-08-08T09:44:53;18.30;99.90
52387;DHT22;38317;53.084;6.960;2023-08-08T09:47:21;18.00;99.90
52387;DHT22;38317;53.084;6.960;2023-08-08T09:49:47;17.70;99.90
52387;DHT22;38317;53.084;6.960;2023-08-08T09:52:14;17.60;99.90
52387;DHT22;38317;53.084;6.960;2023-08-08T09:54:41;17.80;99.90
52387;DHT22;38317;53.084;6.960;2023-08-08T09:57:07;17.90;99.90
52387;DHT22;38317;53.084;6.960;2023-08-08T09:59:34;18.00;99.90
52387;DHT22;38317;53.084;6.960;2023-08-08T10:02:01;18.10;99.90
52387;DHT22;38317;53.084;6.960;2023-08-08T10:04:27;18.30;99.90
52387;DHT22;38317;53.084;6.960;2023-08-08T10:06:53;18.60;99.90
52387;DHT22;38317;53.084;6.960;2023-08-08T10:09:19;18.70;99.90
52387;DHT22;38317;53.084;6.960;2023-08-08T10:11:46;18.80;99.90
52387;DHT22;38317;53.084;6.960;2023-08-08T10:14:13;18.80;99.90
52387;DHT22;38317;53.084;6.960;2023-08-08T10:16:42;18.80;99.90
52387;DHT22;38317;53.084;6.960;2023-08-08T10:19:10;18.90;99.90
52387;DHT22;38317;53.084;6.960;2023-08-08T10:21:37;19.00;99.90
52387;DHT22;38317;53.084;6.960;2023-08-08T10:24:08;19.00;99.90
52387;DHT22;38317;53.084;6.960;2023-08-08T10:26:54;19.00;99.90
52387;DHT22;38317;53.084;6.960;2023-08-08T10:29:20;19.30;99.90
52387;DHT22;38317;53.084;6.960;2023-08-08T10:31:57;19.50;99.90
52387;DHT22;38317;53.084;6.960;2023-08-08T10:34:27;19.30;99.90
52387;DHT22;38317;53.084;6.960;2023-08-08T10:37:13;19.00;99.90
52387;DHT22;38317;53.084;6.960;2023-08-08T10:42:24;18.20;99.90
52387;DHT22;38317;53.084;6.960;2023-08-08T10:44:54;17.80;99.90
52387;DHT22;38317;53.084;6.960;2023-08-08T10:47:34;17.60;99.90
52387;DHT22;38317;53.084;6.960;2023-08-08T10:50:12;17.40;99.90
52387;DHT22;38317;53.084;6.960;2023-08-08T10:52:52;17.20;99.90
52387;DHT22;38317;53.084;6.960;2023-08-08T10:57:58;17.10;99.90
52387;DHT22;38317;53.084;6.960;2023-08-08T11:00:26;17.10;99.90
52387;DHT22;38317;53.084;6.960;2023-08-08T11:02:53;17.30;99.90
52387;DHT22;38317;53.084;6.960;2023-08-08T11:05:22;17.50;99.90
52387;DHT22;38317;53.084;6.960;2023-08-08T11:07:47;17.60;99.90
52387;DHT22;38317;53.084;6.960;2023-08-08T11:10:14;17.80;99.90
52387;DHT22;38317;53.084;6.960;2023-08-08T11:12:40;17.80;99.90
52387;DHT22;38317;53.084;6.960;2023-08-08T11:15:06;17.90;99.90
52387;DHT22;38317;53.084;6.960;2023-08-08T11:17:32;18.30;99.90
52387;DHT22;38317;53.084;6.960;2023-08-08T11:19:58;18.60;99.90
52387;DHT22;38317;53.084;6.960;2023-08-08T11:22:24;18.80;99.90
52387;DHT22;38317;53.084;6.960;2023-08-08T11:24:50;19.00;99.90
52387;DHT22;38317;53.084;6.960;2023-08-08T11:27:16;19.20;99.90
52387;DHT22;38317;53.084;6.960;2023-08-08T11:29:51;19.30;99.90
52387;DHT22;38317;53.084;6.960;2023-08-08T11:32:17;19.50;99.90
52387;DHT22;38317;53.084;6.960;2023-08-08T11:34:43;19.70;99.90
52387;DHT22;38317;53.084;6.960;2023-08-08T11:37:14;19.70;99.90
52387;DHT22;38317;53.084;6.960;2023-08-08T11:39:41;19.50;99.90
52387;DHT22;38317;53.084;6.960;2023-08-08T11:42:07;19.50;99.90
52387;DHT22;38317;53.084;6.960;2023-08-08T11:44:33;19.50;99.90
52387;DHT22;38317;53.084;6.960;2023-08-08T11:47:02;19.60;99.90
52387;DHT22;38317;53.084;6.960;2023-08-08T11:49:28;19.60;99.90
52387;DHT22;38317;53.084;6.960;2023-08-08T11:51:54;19.50;99.90
52387;DHT22;38317;53.084;6.960;2023-08-08T11:54:28;19.70;99.90
52387;DHT22;38317;53.084;6.960;2023-08-08T11:56:54;19.50;99.90
52387;DHT22;38317;53.084;6.960;2023-08-08T11:59:20;19.20;99.90
52387;DHT22;38317;53.084;6.960;2023-08-08T12:01:45;19.10;99.90
52387;DHT22;38317;53.084;6.960;2023-08-08T12:04:11;19.30;99.90
52387;DHT22;38317;53.084;6.960;2023-08-08T12:06:38;19.50;99.90
52387;DHT22;38317;53.084;6.960;2023-08-08T12:09:14;19.40;99.90
52387;DHT22;38317;53.084;6.960;2023-08-08T12:11:40;19.50;99.90
52387;DHT22;38317;53.084;6.960;2023-08-08T12:14:08;19.50;99.90
52387;DHT22;38317;53.084;6.960;2023-08-08T12:16:37;19.50;99.90
52387;DHT22;38317;53.084;6.960;2023-08-08T12:19:07;19.40;99.90
52387;DHT22;38317;53.084;6.960;2023-08-08T12:21:34;19.30;99.90
52387;DHT22;38317;53.084;6.960;2023-08-08T12:24:00;19.10;99.90
52387;DHT22;38317;53.084;6.960;2023-08-08T12:26:26;18.90;99.90
52387;DHT22;38317;53.084;6.960;2023-08-08T12:28:51;18.80;99.90
52387;DHT22;38317;53.084;6.960;2023-08-08T12:31:20;18.90;99.90
52387;DHT22;38317;53.084;6.960;2023-08-08T12:33:45;18.90;99.90
52387;DHT22;38317;53.084;6.960;2023-08-08T12:36:14;18.70;99.90
52387;DHT22;38317;53.084;6.960;2023-08-08T12:38:40;18.70;99.90
52387;DHT22;38317;53.084;6.960;2023-08-08T12:41:06;18.80;99.90
52387;DHT22;38317;53.084;6.960;2023-08-08T12:43:34;19.00;99.90
52387;DHT22;38317;53.084;6.960;2023-08-08T12:46:00;19.20;99.90
52387;DHT22;38317;53.084;6.960;2023-08-08T12:48:25;19.10;99.90
52387;DHT22;38317;53.084;6.960;2023-08-08T12:50:51;19.00;99.90
52387;DHT22;38317;53.084;6.960;2023-08-08T12:53:17;19.00;99.90
52387;DHT22;38317;53.084;6.960;2023-08-08T12:55:42;19.20;99.90
52387;DHT22;38317;53.084;6.960;2023-08-08T12:58:09;19.10;99.90
52387;DHT22;38317;53.084;6.960;2023-08-08T13:00:35;19.10;99.90
52387;DHT22;38317;53.084;6.960;2023-08-08T13:03:01;19.10;99.90
52387;DHT22;38317;53.084;6.960;2023-08-08T13:05:27;18.90;99.90
52387;DHT22;38317;53.084;6.960;2023-08-08T13:07:53;18.90;99.90
52387;DHT22;38317;53.084;6.960;2023-08-08T13:10:19;19.00;99.90
52387;DHT22;38317;53.084;6.960;2023-08-08T13:12:46;19.10;99.90
52387;DHT22;38317;53.084;6.960;2023-08-08T13:15:12;19.30;99.90
52387;DHT22;38317;53.084;6.960;2023-08-08T13:17:38;19.50;99.90
52387;DHT22;38317;53.084;6.960;2023-08-08T13:20:04;19.60;99.90
52387;DHT22;38317;53.084;6.960;2023-08-08T13:22:30;19.60;99.90
52387;DHT22;38317;53.084;6.960;2023-08-08T13:24:56;19.50;99.90
52387;DHT22;38317;53.084;6.960;2023-08-08T13:27:22;19.30;99.90
52387;DHT22;38317;53.084;6.960;2023-08-08T13:29:47;19.40;99.90
52387;DHT22;38317;53.084;6.960;2023-08-08T13:32:13;19.50;99.90
52387;DHT22;38317;53.084;6.960;2023-08-08T13:34:39;19.60;99.90
52387;DHT22;38317;53.084;6.960;2023-08-08T13:37:05;19.60;99.90
52387;DHT22;38317;53.084;6.960;2023-08-08T13:39:31;19.60;99.90
52387;DHT22;38317;53.084;6.960;2023-08-08T13:41:57;19.70;99.90
52387;DHT22;38317;53.084;6.960;2023-08-08T13:44:22;19.90;99.90
52387;DHT22;38317;53.084;6.960;2023-08-08T13:46:48;20.00;99.90
52387;DHT22;38317;53.084;6.960;2023-08-08T13:49:14;20.20;99.90
52387;DHT22;38317;53.084;6.960;2023-08-08T13:51:39;20.20;99.90
52387;DHT22;38317;53.084;6.960;2023-08-08T13:54:06;20.30;99.90
52387;DHT22;38317;53.084;6.960;2023-08-08T13:56:31;20.30;99.90
52387;DHT22;38317;53.084;6.960;2023-08-08T13:58:57;20.40;99.90
52387;DHT22;38317;53.084;6.960;2023-08-08T14:01:23;20.40;99.90
52387;DHT22;38317;53.084;6.960;2023-08-08T14:03:48;20.40;99.90
52387;DHT22;38317;53.084;6.960;2023-08-08T14:06:14;20.40;99.90
52387;DHT22;38317;53.084;6.960;2023-08-08T14:08:40;20.40;99.90
52387;DHT22;38317;53.084;6.960;2023-08-08T14:11:06;20.20;99.90
52387;DHT22;38317;53.084;6.960;2023-08-08T14:13:32;20.00;99.90
52387;DHT22;38317;53.084;6.960;2023-08-08T14:15:58;19.70;99.90
52387;DHT22;38317;53.084;6.960;2023-08-08T14:18:24;19.50;99.90
52387;DHT22;38317;53.084;6.960;2023-08-08T14:20:49;19.20;99.90
52387;DHT22;38317;53.084;6.960;2023-08-08T14:23:15;19.10;99.90
52387;DHT22;38317;53.084;6.960;2023-08-08T14:25:42;18.90;99.90
52387;DHT22;38317;53.084;6.960;2023-08-08T14:28:07;18.80;99.90
52387;DHT22;38317;53.084;6.960;2023-08-08T14:30:33;18.70;99.90
52387;DHT22;38317;53.084;6.960;2023-08-08T14:32:59;18.50;99.90
52387;DHT22;38317;53.084;6.960;2023-08-08T14:35:24;18.50;99.90
52387;DHT22;38317;53.084;6.960;2023-08-08T14:37:50;18.50;99.90
52387;DHT22;38317;53.084;6.960;2023-08-08T14:40:16;18.30;99.90
52387;DHT22;38317;53.084;6.960;2023-08-08T14:42:42;18.30;99.90
52387;DHT22;38317;53.084;6.960;2023-08-08T14:45:08;18.20;99.90
52387;DHT22;38317;53.084;6.960;2023-08-08T14:47:34;18.20;99.90
52387;DHT22;38317;53.084;6.960;2023-08-08T14:49:59;18.20;99.90
52387;DHT22;38317;53.084;6.960;2023-08-08T14:52:25;18.30;99.90
52387;DHT22;38317;53.084;6.960;2023-08-08T14:54:51;18.50;99.90
52387;DHT22;38317;53.084;6.960;2023-08-08T14:57:17;18.70;99.90
52387;DHT22;38317;53.084;6.960;2023-08-08T14:59:43;18.90;99.90
52387;DHT22;38317;53.084;6.960;2023-08-08T15:02:08;19.10;99.90
52387;DHT22;38317;53.084;6.960;2023-08-08T15:04:34;19.20;99.90
52387;DHT22;38317;53.084;6.960;2023-08-08T15:07:00;19.40;99.90
52387;DHT22;38317;53.084;6.960;2023-08-08T15:09:25;19.40;99.90
52387;DHT22;38317;53.084;6.960;2023-08-08T15:11:51;19.30;99.90
52387;DHT22;38317;53.084;6.960;2023-08-08T15:14:17;19.20;99.90
52387;DHT22;38317;53.084;6.960;2023-08-08T15:16:51;19.10;99.90
52387;DHT22;38317;53.084;6.960;2023-08-08T15:19:17;19.10;99.90
52387;DHT22;38317;53.084;6.960;2023-08-08T15:21:43;19.20;99.90
52387;DHT22;38317;53.084;6.960;2023-08-08T15:24:09;19.10;99.90
52387;DHT22;38317;53.084;6.960;2023-08-08T15:26:35;19.00;99.90
52387;DHT22;38317;53.084;6.960;2023-08-08T15:29:01;19.00;99.90
52387;DHT22;38317;53.084;6.960;2023-08-08T15:31:27;19.10;99.90
52387;DHT22;38317;53.084;6.960;2023-08-08T15:33:52;19.10;99.90